Time;durP1;ratioP1;P1;durP2;ratioP2;P2;SDS_P1;SDS_P2;PMS_P1;PMS_P2;Temp;Humidity;BMP_temperature;BMP_pressure;BME280_temperature;BME280_humidity;BME280_pressure;Samples;Min_cycle;Max_cycle;Signal;HPM_P1;HPM_P2
2020/12/31 00:00:17;;;;;;;17.67;8.83;;;;;;;9.44;78.57;99816.99;1737213;81;21217;-83
2020/12/31 00:02:46;;;;;;;12.67;8.33;;;;;;;9.45;78.52;99813.30;1714996;81;21207;-83
2020/12/31 00:05:13;;;;;;;16.47;9.83;;;;;;;9.46;78.40;99816.80;1718975;80;21322;-81
2020/12/31 00:07:43;;;;;;;15.47;9.10;;;;;;;9.42;78.58;99817.70;1746419;80;21197;-82
2020/12/31 00:10:10;;;;;;;15.03;9.80;;;;;;;9.37;78.60;99818.78;1757536;80;21392;-81
2020/12/31 00:12:37;;;;;;;18.03;8.30;;;;;;;9.39;78.58;99814.08;1728324;80;21208;-80
2020/12/31 00:15:04;;;;;;;14.07;10.13;;;;;;;9.46;78.33;99812.30;1739916;81;21207;-83
2020/12/31 00:17:32;;;;;;;15.17;9.80;;;;;;;9.40;78.39;99817.07;1722514;81;21198;-81
2020/12/31 00:19:58;;;;;;;18.23;9.43;;;;;;;9.28;78.83;99809.29;1723114;80;22001;-82
2020/12/31 00:22:25;;;;;;;19.60;10.07;;;;;;;9.31;78.73;99806.26;1739421;80;21200;-83
2020/12/31 00:24:53;;;;;;;18.33;11.37;;;;;;;9.37;78.57;99805.48;1736401;80;21678;-80
2020/12/31 00:27:22;;;;;;;17.17;10.73;;;;;;;9.39;78.48;99813.27;1731014;80;21249;-82
2020/12/31 00:29:48;;;;;;;13.80;9.93;;;;;;;9.29;78.70;99800.31;1737201;81;21201;-81
2020/12/31 00:32:15;;;;;;;20.57;9.67;;;;;;;9.27;78.79;99803.16;1728987;80;21181;-83
2020/12/31 00:34:43;;;;;;;14.90;9.83;;;;;;;9.28;78.71;99809.29;1721328;80;21251;-82
2020/12/31 00:37:10;;;;;;;17.97;9.30;;;;;;;9.31;78.56;99807.59;1741639;81;21284;-81
2020/12/31 00:39:37;;;;;;;24.73;12.83;;;;;;;9.29;78.52;99801.64;1726443;80;21196;-82
2020/12/31 00:42:04;;;;;;;19.13;9.87;;;;;;;9.22;78.73;99803.42;1748086;80;21158;-81
2020/12/31 00:44:30;;;;;;;13.27;9.17;;;;;;;9.19;78.81;99806.45;1743783;80;21301;-81
2020/12/31 00:46:57;;;;;;;11.97;8.50;;;;;;;9.25;78.59;99807.85;1729470;81;21196;-82
2020/12/31 00:49:26;;;;;;;21.43;10.87;;;;;;;9.27;78.45;99810.33;1705164;81;21211;-81
2020/12/31 00:51:53;;;;;;;18.03;11.43;;;;;;;9.21;78.54;99809.25;1727743;80;21209;-83
2020/12/31 00:54:20;;;;;;;20.87;11.27;;;;;;;9.15;78.71;99812.17;1721093;80;22379;-81
2020/12/31 00:56:48;;;;;;;27.47;11.40;;;;;;;9.18;78.70;99812.28;1710548;80;21202;-83
2020/12/31 00:59:15;;;;;;;15.50;10.13;;;;;;;9.24;78.45;99810.18;1729227;80;21214;-83
2020/12/31 01:01:43;;;;;;;26.77;11.90;;;;;;;9.20;78.48;99810.77;1723431;80;21603;-80
2020/12/31 01:04:10;;;;;;;16.63;10.20;;;;;;;9.14;78.75;99819.01;1726590;81;21210;-80
2020/12/31 01:06:37;;;;;;;21.30;10.13;;;;;;;9.21;78.47;99811.91;1736730;81;21157;-82
2020/12/31 01:09:07;;;;;;;22.67;13.33;;;;;;;9.23;78.35;99819.67;1733343;81;21206;-79
2020/12/31 01:11:38;;;;;;;19.80;9.77;;;;;;;9.15;78.54;99816.65;1729557;81;21231;-80
2020/12/31 01:14:06;;;;;;;16.80;9.50;;;;;;;9.13;78.61;99809.38;1736870;81;21144;-84
2020/12/31 01:16:33;;;;;;;16.83;9.80;;;;;;;9.21;78.36;99816.39;1745747;81;21310;-83
2020/12/31 01:19:01;;;;;;;14.80;9.77;;;;;;;9.21;78.27;99811.06;1733364;81;21616;-79
2020/12/31 01:21:28;;;;;;;16.30;9.57;;;;;;;9.14;78.50;99824.33;1735069;81;21641;-82
2020/12/31 01:23:55;;;;;;;13.47;9.37;;;;;;;9.13;78.54;99818.16;1711715;81;21219;-80
2020/12/31 01:26:33;;;;;;;19.17;10.17;;;;;;;8.99;78.26;99779.20;1711595;81;21263;-79
2020/12/31 01:29:00;;;;;;;15.60;9.67;;;;;;;9.19;78.32;99819.75;1721698;81;21177;-84
2020/12/31 01:31:27;;;;;;;15.83;9.97;;;;;;;9.12;78.59;99815.72;1735074;81;22275;-84
2020/12/31 01:33:54;;;;;;;19.97;10.40;;;;;;;9.12;78.62;99820.52;1735756;81;21200;-83
2020/12/31 01:36:21;;;;;;;20.27;10.03;;;;;;;9.16;78.56;99818.30;1686482;80;21165;-82
2020/12/31 01:38:48;;;;;;;18.47;12.10;;;;;;;9.20;78.58;99826.73;1655185;85;21270;-84
2020/12/31 01:41:15;;;;;;;19.60;11.13;;;;;;;9.09;79.06;99818.23;1652988;85;21338;-83
2020/12/31 01:43:42;;;;;;;17.87;10.97;;;;;;;8.83;79.36;99783.45;1652942;85;21207;-80
2020/12/31 01:46:12;;;;;;;14.87;9.70;;;;;;;9.06;79.46;99827.09;1652375;85;21220;-80
2020/12/31 01:48:39;;;;;;;15.83;9.60;;;;;;;9.02;79.73;99822.66;1650393;85;21655;-83
2020/12/31 01:51:07;;;;;;;18.97;10.80;;;;;;;9.04;79.70;99821.16;1653703;85;21354;-84
2020/12/31 01:53:33;;;;;;;16.13;10.53;;;;;;;9.03;79.75;99822.18;1650894;85;21215;-80
2020/12/31 01:56:00;;;;;;;19.03;10.70;;;;;;;8.97;79.93;99818.45;1664154;85;21212;-82
2020/12/31 01:58:28;;;;;;;16.63;11.23;;;;;;;9.01;79.91;99822.36;1665877;85;21212;-82
2020/12/31 02:00:56;;;;;;;16.70;10.53;;;;;;;9.00;80.16;99828.69;1666218;84;21226;-80
2020/12/31 02:03:23;;;;;;;20.10;11.03;;;;;;;9.00;80.37;99807.41;1631376;84;21214;-82
2020/12/31 02:05:50;;;;;;;20.30;10.90;;;;;;;9.00;80.49;99817.23;1652080;83;21587;-81
2020/12/31 02:08:17;;;;;;;22.27;12.43;;;;;;;8.94;80.76;99812.17;1678746;83;21212;-78
2020/12/31 02:10:44;;;;;;;18.67;10.20;;;;;;;8.89;81.20;99815.90;1691397;83;21205;-79
2020/12/31 02:13:11;;;;;;;23.60;11.90;;;;;;;8.92;81.10;99812.88;1670992;83;21678;-79
2020/12/31 02:15:38;;;;;;;27.10;12.73;;;;;;;8.95;81.27;99816.49;1642925;85;21215;-80
2020/12/31 02:18:05;;;;;;;20.33;12.00;;;;;;;8.89;81.06;99786.66;1624932;86;21189;-81
2020/12/31 02:20:32;;;;;;;25.07;13.77;;;;;;;8.97;81.32;99801.17;1623030;86;21207;-85
2020/12/31 02:22:59;;;;;;;17.47;11.50;;;;;;;8.90;81.54;99801.61;1639045;85;21341;-81
2020/12/31 02:25:26;;;;;;;23.80;12.90;;;;;;;8.95;81.53;99790.72;1689794;83;21833;-82
2020/12/31 02:27:52;;;;;;;25.27;14.73;;;;;;;9.00;81.44;99788.80;1653846;84;21607;-82
2020/12/31 02:30:19;;;;;;;20.63;13.17;;;;;;;8.95;81.59;99788.58;1684556;83;21199;-82
2020/12/31 02:32:46;;;;;;;24.03;11.43;;;;;;;8.86;81.94;99795.84;1682191;83;21188;-83
2020/12/31 02:35:13;;;;;;;19.80;10.77;;;;;;;8.91;81.90;99777.98;1660400;83;21280;-80
2020/12/31 02:37:41;;;;;;;26.70;12.27;;;;;;;8.93;81.72;99787.44;1691342;82;21219;-84
2020/12/31 02:40:08;;;;;;;20.07;12.07;;;;;;;8.95;81.62;99783.27;1696402;82;21226;-82
2020/12/31 02:42:35;;;;;;;25.00;11.70;;;;;;;8.91;81.73;99780.64;1705796;82;21206;-81
2020/12/31 02:45:03;;;;;;;26.67;13.93;;;;;;;8.90;81.89;99783.00;1691402;82;21142;-79
2020/12/31 02:47:34;;;;;;;19.03;12.93;;;;;;;8.90;81.97;99783.82;1706032;82;21929;-82
2020/12/31 02:50:01;;;;;;;24.57;13.83;;;;;;;8.93;81.89;99784.78;1703175;82;21234;-82
2020/12/31 02:52:28;;;;;;;22.13;14.20;;;;;;;8.86;82.07;99781.23;1663951;84;21214;-82
2020/12/31 02:54:55;;;;;;;20.53;12.17;;;;;;;8.84;82.32;99789.09;1644035;85;21261;-82
2020/12/31 02:57:21;;;;;;;21.20;14.03;;;;;;;8.86;82.40;99781.23;1644175;85;21906;-82
2020/12/31 02:59:48;;;;;;;23.73;13.60;;;;;;;8.85;82.42;99786.73;1697461;82;21646;-82
2020/12/31 03:02:17;;;;;;;22.83;14.60;;;;;;;8.80;82.54;99785.14;1696135;82;22481;-81
2020/12/31 03:04:44;;;;;;;19.47;13.27;;;;;;;8.74;82.76;99785.42;1706024;82;21658;-82
2020/12/31 03:07:11;;;;;;;25.63;13.23;;;;;;;8.76;82.70;99781.56;1665865;84;21300;-80
2020/12/31 03:09:38;;;;;;;18.53;12.47;;;;;;;8.80;82.55;99786.47;1701952;82;21203;-81
2020/12/31 03:12:05;;;;;;;21.90;12.00;;;;;;;8.82;82.41;99770.67;1692796;83;21699;-82
2020/12/31 03:14:31;;;;;;;23.60;13.10;;;;;;;8.85;82.33;99772.12;1693818;83;21234;-81
2020/12/31 03:16:58;;;;;;;19.27;12.73;;;;;;;8.80;82.29;99768.72;1706020;82;21193;-81
2020/12/31 03:19:25;;;;;;;23.37;11.97;;;;;;;8.78;82.31;99762.77;1704938;82;21198;-83
2020/12/31 03:21:52;;;;;;;29.90;15.43;;;;;;;8.82;82.12;99766.69;1707002;82;21556;-82
2020/12/31 03:24:19;;;;;;;25.57;14.13;;;;;;;8.84;82.01;99759.86;1644511;85;21567;-78
2020/12/31 03:26:46;;;;;;;25.50;15.30;;;;;;;8.81;82.05;99765.55;1705942;82;21363;-80
2020/12/31 03:29:13;;;;;;;26.90;13.83;;;;;;;8.72;82.30;99762.18;1705334;82;21881;-79
2020/12/31 03:31:40;;;;;;;24.17;13.77;;;;;;;8.71;82.35;99756.05;1709660;82;21784;-84
2020/12/31 03:34:08;;;;;;;23.70;13.67;;;;;;;8.77;82.10;99742.00;1707735;82;21176;-82
2020/12/31 03:36:35;;;;;;;24.70;16.37;;;;;;;8.79;82.23;99744.98;1654620;79;21260;-84
2020/12/31 03:39:02;;;;;;;24.93;14.87;;;;;;;8.75;82.33;99736.05;1654443;85;21272;-85
2020/12/31 03:41:29;;;;;;;24.23;14.53;;;;;;;8.68;82.64;99740.52;1603129;84;21288;-84
2020/12/31 03:43:56;;;;;;;18.53;12.97;;;;;;;8.65;82.74;99740.07;1627004;85;21230;-85
2020/12/31 03:46:23;;;;;;;24.03;15.20;;;;;;;8.71;82.46;99738.78;1638935;84;21188;-84
2020/12/31 03:48:50;;;;;;;32.73;16.63;;;;;;;8.74;82.34;99737.60;1671229;84;21244;-83
2020/12/31 03:51:17;;;;;;;26.20;15.13;;;;;;;8.64;82.75;99745.05;1675444;83;21339;-84
2020/12/31 03:53:44;;;;;;;26.93;16.20;;;;;;;8.71;82.56;99745.42;1689131;83;21224;-84
2020/12/31 03:56:10;;;;;;;26.83;15.23;;;;;;;8.74;82.62;99742.91;1687530;83;21385;-86
2020/12/31 03:58:37;;;;;;;23.80;15.43;;;;;;;8.77;82.42;99742.00;1667520;83;21751;-84
2020/12/31 04:01:04;;;;;;;24.80;17.13;;;;;;;8.76;82.45;99737.72;1673869;83;21221;-83
2020/12/31 04:03:31;;;;;;;29.17;16.07;;;;;;;8.61;82.68;99739.63;1644963;86;21215;-83
2020/12/31 04:05:58;;;;;;;24.57;14.03;;;;;;;8.66;82.42;99741.70;1632696;85;21127;-83
2020/12/31 04:08:25;;;;;;;20.17;14.77;;;;;;;8.74;82.12;99732.28;1640178;86;21243;-85
2020/12/31 04:10:53;;;;;;;26.53;15.63;;;;;;;8.77;81.92;99737.20;1622567;86;21213;-87
2020/12/31 04:13:20;;;;;;;33.53;16.03;;;;;;;8.63;82.27;99753.54;1617650;87;22030;-85
2020/12/31 04:15:47;;;;;;;24.10;14.27;;;;;;;8.65;82.34;99750.18;1640810;85;21215;-87
2020/12/31 04:18:14;;;;;;;26.60;15.30;;;;;;;8.69;82.28;99751.95;1641390;85;21271;-87
2020/12/31 04:20:41;;;;;;;26.13;16.40;;;;;;;8.72;82.24;99749.74;1628808;86;21229;-86
2020/12/31 04:23:08;;;;;;;26.93;17.37;;;;;;;8.73;82.22;99742.06;1635904;85;21734;-84
2020/12/31 04:25:35;;;;;;;26.27;17.03;;;;;;;8.69;82.27;99751.95;1630900;85;21204;-85
2020/12/31 04:28:02;;;;;;;23.77;13.53;;;;;;;7.82;82.08;99606.38;1632417;86;21232;-85
2020/12/31 04:30:31;;;;;;;26.53;14.47;;;;;;;8.80;81.71;99752.77;1632548;86;21666;-85
2020/12/31 04:32:58;;;;;;;28.43;15.83;;;;;;;8.76;81.21;99752.33;1625204;85;21651;-85
2020/12/31 04:35:27;;;;;;;29.27;16.80;;;;;;;8.71;81.36;99753.40;1639886;82;21108;-85
2020/12/31 04:37:54;;;;;;;24.63;15.37;;;;;;;8.68;81.33;99745.83;1690871;83;21172;-86
2020/12/31 04:40:21;;;;;;;20.90;14.37;;;;;;;8.76;81.07;99750.19;1687034;83;21193;-84
2020/12/31 04:42:50;;;;;;;22.30;15.67;;;;;;;8.76;80.78;99758.16;1690514;83;21245;-85
2020/12/31 04:45:19;;;;;;;24.90;15.40;;;;;;;8.73;80.77;99762.00;1685665;83;21994;-87
2020/12/31 04:48:17;;;;;;;23.97;14.17;;;;;;;8.71;80.61;99766.69;1660331;85;21206;-86
2020/12/31 04:50:45;;;;;;;22.27;13.13;;;;;;;8.74;80.10;99776.94;1650247;85;21789;-85
2020/12/31 04:53:12;;;;;;;20.43;14.43;;;;;;;8.83;80.00;99781.60;1628890;85;22383;-85
2020/12/31 04:55:43;;;;;;;23.97;14.37;;;;;;;8.83;79.84;99780.79;1652220;85;21261;-86
2020/12/31 04:58:13;;;;;;;23.40;14.23;;;;;;;8.76;79.83;99785.55;1640354;85;21218;-86
2020/12/31 05:00:41;;;;;;;21.43;13.57;;;;;;;8.80;79.45;99787.80;1641017;85;21181;-84
2020/12/31 05:03:09;;;;;;;19.00;12.70;;;;;;;8.82;79.25;99793.78;1633509;86;21174;-85
2020/12/31 05:05:37;;;;;;;19.03;12.93;;;;;;;8.81;79.24;99790.79;1654377;84;22499;-85
2020/12/31 05:08:06;;;;;;;14.83;12.13;;;;;;;8.76;79.36;99794.84;1634137;86;21575;-86
2020/12/31 05:10:33;;;;;;;25.73;13.40;;;;;;;8.87;79.06;99795.34;1660025;83;21301;-84
2020/12/31 05:13:04;;;;;;;21.87;13.20;;;;;;;8.89;78.76;99798.62;1663932;84;21716;-85
2020/12/31 05:15:42;;;;;;;19.43;14.27;;;;;;;8.82;78.77;99786.63;1655694;84;21324;-86
2020/12/31 05:18:19;;;;;;;;;;;;;;;8.83;78.84;99792.75;1658224;84;21647;-84
2020/12/31 05:20:49;;;;;;;23.70;13.80;;;;;;;8.88;78.59;99791.16;1678189;83;20251;-85
2020/12/31 05:23:19;;;;;;;20.13;13.93;;;;;;;8.84;78.56;99797.06;1663288;84;22393;-84
2020/12/31 05:25:49;;;;;;;22.00;13.43;;;;;;;8.82;78.84;99802.56;1658305;85;21320;-83
2020/12/31 05:28:33;;;;;;;17.30;12.73;;;;;;;8.81;78.61;99805.41;1662892;85;21652;-86
2020/12/31 05:31:12;;;;;;;20.53;13.30;;;;;;;8.90;78.30;99801.09;1636980;86;21216;-84
2020/12/31 05:33:41;;;;;;;19.40;13.03;;;;;;;8.73;77.93;99775.80;1672811;84;21229;-84
2020/12/31 05:36:18;;;;;;;19.50;13.20;;;;;;;8.81;78.19;99816.03;1647641;85;21119;-86
2020/12/31 05:39:02;;;;;;;17.10;12.33;;;;;;;8.77;78.13;99817.73;1678878;83;21257;-82
2020/12/31 05:41:36;;;;;;;22.37;14.37;;;;;;;8.86;77.84;99816.30;1659891;85;21675;-89
2020/12/31 05:44:59;;;;;;;19.60;12.73;;;;;;;8.85;77.94;99810.66;1763927;79;28516;-88
2020/12/31 05:47:29;;;;;;;15.93;12.27;;;;;;;8.79;78.09;99820.72;1729591;81;21206;-88
2020/12/31 05:49:58;;;;;;;14.57;12.67;;;;;;;8.84;77.80;99824.97;1711050;82;21206;-88
2020/12/31 05:52:39;;;;;;;17.27;11.83;;;;;;;8.83;77.91;99824.13;1709756;81;21331;-91
2020/12/31 05:55:09;;;;;;;21.50;13.43;;;;;;;8.74;78.18;99824.77;1667696;82;21231;-86
2020/12/31 05:57:46;;;;;;;20.53;12.03;;;;;;;8.72;78.30;99824.63;1696616;82;21197;-86
2020/12/31 06:00:17;;;;;;;18.80;13.17;;;;;;;8.77;78.21;99824.38;1720127;82;21312;-87
2020/12/31 06:04:22;;;;;;;20.87;12.87;;;;;;;8.79;78.43;99822.05;1807218;79;22695;-85
2020/12/31 06:06:53;;;;;;;15.77;12.10;;;;;;;8.70;78.72;99834.14;1760072;77;21180;-85
2020/12/31 06:09:31;;;;;;;19.33;12.47;;;;;;;8.79;78.55;99834.01;1754188;81;21207;-85
2020/12/31 06:12:06;;;;;;;25.17;13.33;;;;;;;8.82;78.56;99836.30;1751469;80;21290;-84
2020/12/31 06:14:35;;;;;;;17.00;11.93;;;;;;;8.74;78.81;99839.91;1758690;81;21121;-84
2020/12/31 06:17:05;;;;;;;22.67;12.47;;;;;;;8.75;79.00;99845.00;1746206;81;21298;-83
2020/12/31 06:19:36;;;;;;;16.37;12.87;;;;;;;8.82;78.87;99844.27;1751332;80;21159;-83
2020/12/31 06:22:10;;;;;;;22.20;13.13;;;;;;;8.80;78.94;99852.42;1754251;81;21345;-84
2020/12/31 06:24:43;;;;;;;17.03;12.17;;;;;;;8.70;79.34;99854.06;1745999;81;21224;-83
2020/12/31 06:27:12;;;;;;;20.23;11.57;;;;;;;8.73;79.31;99847.03;1756660;81;22617;-82
2020/12/31 06:29:46;;;;;;;19.47;12.20;;;;;;;8.76;79.32;99851.16;1750193;81;21190;-89
2020/12/31 06:32:25;;;;;;;18.37;14.07;;;;;;;8.73;79.35;99851.02;1757749;80;21327;-88
2020/12/31 06:35:07;;;;;;;18.13;13.80;;;;;;;8.68;79.59;99853.44;1732602;81;21240;-89
2020/12/31 06:37:34;;;;;;;17.57;12.83;;;;;;;8.67;79.70;99854.43;1760764;81;21212;-89
2020/12/31 06:40:26;;;;;;;18.10;11.60;;;;;;;8.73;79.43;99853.67;1740264;81;21192;-89
2020/12/31 06:43:11;;;;;;;22.83;13.53;;;;;;;8.75;79.45;99854.30;1754371;80;21614;-87
2020/12/31 06:45:45;;;;;;;17.67;12.93;;;;;;;8.69;79.64;99853.73;1747973;80;21144;-85
2020/12/31 06:48:31;;;;;;;20.23;14.40;;;;;;;8.67;79.56;99862.41;1754894;80;21175;-87
2020/12/31 06:51:03;;;;;;;22.90;13.13;;;;;;;8.70;79.51;99856.72;1759450;80;21195;-88
2020/12/31 06:53:45;;;;;;;21.53;13.60;;;;;;;8.68;79.67;99852.59;1757068;81;21199;-88
2020/12/31 06:56:16;;;;;;;26.07;14.27;;;;;;;8.24;79.88;99799.05;1743856;80;21167;-86
2020/12/31 06:58:43;;;;;;;19.60;13.40;;;;;;;8.56;80.24;99864.22;1755821;81;21183;-88
2020/12/31 07:01:29;;;;;;;14.87;12.17;;;;;;;8.56;80.19;99859.72;1748976;81;21140;-86
2020/12/31 07:03:58;;;;;;;21.77;14.63;;;;;;;8.64;80.06;99864.09;1710954;82;21156;-88
2020/12/31 07:06:30;;;;;;;26.03;13.23;;;;;;;8.60;80.04;99868.14;1734845;81;21057;-90
2020/12/31 07:09:01;;;;;;;18.50;12.60;;;;;;;8.58;80.22;99868.83;1727763;81;21173;-88
2020/12/31 07:11:35;;;;;;;20.37;12.97;;;;;;;8.68;79.99;99869.86;1724429;81;21174;-90
2020/12/31 07:14:19;;;;;;;19.93;13.57;;;;;;;8.73;79.74;99866.14;1730952;81;21150;-91
2020/12/31 07:16:57;;;;;;;19.97;14.07;;;;;;;8.69;79.81;99865.69;1726733;79;21169;-89
2020/12/31 07:19:37;;;;;;;21.83;13.57;;;;;;;8.62;80.00;99859.48;1734733;79;21142;-91
2020/12/31 07:22:21;;;;;;;18.07;13.00;;;;;;;8.70;79.84;99864.70;1734640;79;21244;-89
2020/12/31 07:24:53;;;;;;;21.50;14.00;;;;;;;8.69;79.76;99863.03;1725394;81;21627;-93
2020/12/31 07:27:35;;;;;;;18.97;12.47;;;;;;;8.61;79.98;99863.16;1718899;81;21169;-92
2020/12/31 07:30:25;;;;;;;21.60;14.27;;;;;;;8.65;79.97;99868.41;1728426;81;21209;-91
2020/12/31 07:33:14;;;;;;;19.93;13.03;;;;;;;8.72;79.77;99864.00;1724076;81;21347;-89
2020/12/31 07:35:49;;;;;;;22.57;14.70;;;;;;;8.61;80.01;99864.97;1716162;81;21329;-91
2020/12/31 07:38:18;;;;;;;21.30;13.73;;;;;;;8.64;79.92;99876.56;1708133;83;21990;-90
2020/12/31 07:43:36;;;;;;;27.17;15.70;;;;;;;8.75;79.72;99881.39;1805484;77;22957;-92
2020/12/31 07:46:18;;;;;;;21.73;14.73;;;;;;;8.66;80.01;99881.18;1751368;80;21145;-91
2020/12/31 07:48:45;;;;;;;23.40;14.90;;;;;;;8.72;79.86;99878.61;1750936;81;21348;-93
2020/12/31 07:51:19;;;;;;;24.83;15.03;;;;;;;8.72;79.88;99885.73;1725300;81;21234;-92
2020/12/31 07:54:00;;;;;;;26.80;16.33;;;;;;;8.68;79.82;99882.66;1768500;79;21158;-92
2020/12/31 07:56:34;;;;;;;27.00;16.13;;;;;;;8.62;80.08;99887.37;1783945;80;21556;-94
2020/12/31 07:59:28;;;;;;;24.77;15.30;;;;;;;8.74;79.74;99885.89;1757939;80;21193;-92
2020/12/31 08:01:56;;;;;;;23.17;14.50;;;;;;;8.81;79.47;99897.91;1776645;80;21887;-90
2020/12/31 08:04:44;;;;;;;24.20;14.20;;;;;;;8.77;79.31;99896.13;1774757;78;21318;-92
2020/12/31 08:07:23;;;;;;;24.00;13.97;;;;;;;8.84;79.23;99896.73;1723401;79;21077;-91
2020/12/31 08:10:04;;;;;;;19.80;14.83;;;;;;;8.93;78.75;99903.06;1728916;83;21104;-93
2020/12/31 08:12:31;;;;;;;24.60;15.77;;;;;;;8.89;78.69;99904.94;1727464;81;21176;-91
2020/12/31 08:15:03;;;;;;;19.17;13.77;;;;;;;8.81;78.87;99901.08;1723391;83;21183;-90
2020/12/31 08:17:47;;;;;;;27.20;13.57;;;;;;;8.86;78.73;99900.02;1723998;82;21417;-88
2020/12/31 08:20:18;;;;;;;19.90;15.03;;;;;;;8.93;78.50;99902.25;1723690;83;21162;-89
2020/12/31 08:25:43;;;;;;;21.93;14.50;;;;;;;8.83;78.71;99906.52;1727547;82;21310;-91
2020/12/31 08:28:20;;;;;;;20.20;12.40;;;;;;;8.82;78.76;99902.22;1728785;83;21182;-88
2020/12/31 08:31:17;;;;;;;24.67;14.17;;;;;;;8.92;78.55;99892.09;1809046;78;23569;-89
2020/12/31 08:33:46;;;;;;;18.67;13.17;;;;;;;8.85;78.61;99901.83;1765719;79;21164;-91
2020/12/31 08:36:27;;;;;;;20.93;12.77;;;;;;;8.77;78.87;99898.78;1694097;81;21262;-90
2020/12/31 08:38:58;;;;;;;22.50;13.73;;;;;;;8.84;78.84;99897.55;1677261;82;21323;-92
2020/12/31 08:41:37;;;;;;;22.50;14.43;;;;;;;8.99;78.52;99893.51;1680870;82;21220;-90
2020/12/31 08:44:34;;;;;;;18.43;14.73;;;;;;;9.06;78.45;99888.25;1799887;77;28337;-91
2020/12/31 08:47:10;;;;;;;22.03;15.07;;;;;;;9.03;78.30;99893.95;1770130;79;21322;-91
2020/12/31 08:49:41;;;;;;;20.37;12.33;;;;;;;8.99;78.24;99894.84;1754328;80;21646;-89
2020/12/31 08:52:27;;;;;;;19.47;15.53;;;;;;;9.10;78.13;99893.53;1833579;76;28258;-91
2020/12/31 08:55:07;;;;;;;17.02;12.95;;;;;;;9.24;77.76;99893.13;1830343;77;21322;-92
2020/12/31 08:57:37;;;;;;;19.30;13.37;;;;;;;9.27;77.50;99896.75;1807704;78;21299;-94
2020/12/31 09:00:08;;;;;;;21.67;14.13;;;;;;;9.15;78.04;99889.77;1796109;78;21192;-93
2020/12/31 09:02:39;;;;;;;20.70;13.77;;;;;;;9.10;78.34;99895.67;1823967;78;21168;-91
2020/12/31 09:05:16;;;;;;;19.97;14.70;;;;;;;9.02;78.77;99889.13;1804674;78;21189;-89
2020/12/31 09:08:09;;;;;;;22.73;14.43;;;;;;;8.90;79.33;99895.97;1735874;80;21192;-93
2020/12/31 09:10:37;;;;;;;21.40;13.97;;;;;;;8.95;79.40;99885.09;1768813;78;21632;-91
2020/12/31 09:13:19;;;;;;;23.03;14.73;;;;;;;9.06;79.29;99888.25;1762984;80;21872;-91
2020/12/31 09:16:08;;;;;;;23.37;14.47;;;;;;;9.05;79.30;99887.43;1737784;80;21316;-88
2020/12/31 09:18:54;;;;;;;16.47;12.83;;;;;;;8.95;79.81;99880.28;1777987;79;22901;-91
2020/12/31 09:21:27;;;;;;;16.60;12.33;;;;;;;8.87;80.20;99886.55;1773876;79;21125;-88
2020/12/31 09:23:54;;;;;;;20.17;14.97;;;;;;;8.85;80.46;99894.37;1767309;80;21316;-90
2020/12/31 09:26:29;;;;;;;22.70;13.67;;;;;;;8.74;80.99;99885.08;1782672;79;21899;-90
2020/12/31 09:29:01;;;;;;;14.67;11.87;;;;;;;8.68;81.24;99880.48;1733692;79;21421;-90
2020/12/31 09:37:57;;;;;;;16.70;11.63;;;;;;;8.73;81.42;99876.77;1664570;80;21200;-89
2020/12/31 09:40:26;;;;;;;12.10;9.53;;;;;;;8.69;81.76;99882.96;1649900;86;21230;-89
2020/12/31 09:42:53;;;;;;;12.27;9.50;;;;;;;8.72;81.63;99881.27;1643722;85;21219;-89
2020/12/31 09:45:20;;;;;;;10.73;9.00;;;;;;;8.71;81.38;99880.94;1666924;85;21208;-94
2020/12/31 09:48:14;;;;;;;15.53;10.93;;;;;;;8.72;81.40;99872.45;1662299;85;21430;-93
2020/12/31 09:58:33;;;;;;;;;;;;;;;;;;;;;
2020/12/31 10:12:13;;;;;;;26.63;17.17;;;;;;;8.71;81.83;99861.52;1835237;77;23097;-88
2020/12/31 10:14:42;;;;;;;22.17;15.53;;;;;;;8.62;81.83;99872.76;1814910;77;21158;-90
2020/12/31 10:21:31;;;;;;;21.83;15.90;;;;;;;8.64;82.05;99857.97;1714073;79;21218;-94
2020/12/31 11:05:33;;;;;;;30.33;22.57;;;;;;;8.41;82.68;99816.92;1753316;76;21124;-95
2020/12/31 11:13:05;;;;;;;30.33;23.20;;;;;;;8.62;81.92;99825.45;1731792;79;21257;-94
2020/12/31 11:19:35;;;;;;;23.93;17.77;;;;;;;8.45;82.22;99828.33;1742865;78;20131;-95
2020/12/31 11:42:32;;;;;;;33.50;26.20;;;;;;;8.35;82.17;99789.27;1655389;84;21249;-83
2020/12/31 11:45:28;;;;;;;31.33;21.30;;;;;;;8.46;82.50;99803.94;1790930;78;23127;-83
2020/12/31 11:47:55;;;;;;;24.30;18.87;;;;;;;8.41;82.33;99803.64;1744085;81;21129;-84
2020/12/31 11:50:21;;;;;;;28.03;21.30;;;;;;;8.42;82.07;99798.17;1698087;83;21238;-86
2020/12/31 11:52:49;;;;;;;28.40;21.77;;;;;;;8.52;81.96;99816.46;1676661;84;21189;-87
2020/12/31 11:55:16;;;;;;;33.47;23.80;;;;;;;8.54;81.96;99813.11;1668778;84;21699;-86
2020/12/31 11:57:43;;;;;;;30.77;20.60;;;;;;;8.50;81.95;99813.17;1686669;84;21376;-82
2020/12/31 12:00:14;;;;;;;28.47;20.47;;;;;;;8.50;81.94;99815.83;1694606;84;21815;-84
2020/12/31 12:02:41;;;;;;;23.90;18.90;;;;;;;8.55;81.85;99814.26;1704903;84;21227;-85
2020/12/31 12:08:12;;;;;;;25.40;20.90;;;;;;;8.61;81.71;99810.51;1758765;78;27915;-86
2020/12/31 12:10:41;;;;;;;22.87;18.57;;;;;;;8.53;81.88;99813.62;1751946;80;21631;-86
2020/12/31 12:13:12;;;;;;;21.23;16.50;;;;;;;8.60;81.77;99815.01;1732164;79;22677;-93
2020/12/31 12:15:50;;;;;;;24.10;20.90;;;;;;;8.64;81.54;99816.27;1738238;79;21183;-94
2020/12/31 12:19:03;;;;;;;22.95;20.55;;;;;;;8.57;81.65;99817.55;1704951;83;21243;-92
2020/12/31 12:21:32;;;;;;;24.47;17.80;;;;;;;8.52;81.65;99789.90;1765446;78;21210;-92
2020/12/31 12:24:06;;;;;;;24.13;21.10;;;;;;;8.64;81.38;99818.92;1681087;82;21173;-92
2020/12/31 12:27:14;;;;;;;25.30;20.37;;;;;;;8.61;81.50;99817.15;1719502;81;21343;-91
2020/12/31 12:30:50;;;;;;;22.77;16.73;;;;;;;8.52;81.73;99811.97;1754285;78;21185;-95
2020/12/31 12:34:06;;;;;;;20.88;14.65;;;;;;;8.59;81.45;99814.70;1737390;79;21109;-93
2020/12/31 12:37:06;;;;;;;17.97;14.37;;;;;;;8.56;81.40;99807.10;1701873;80;21076;-94
2020/12/31 12:43:41;;;;;;;19.23;13.77;;;;;;;8.62;81.32;99807.67;1619623;84;21211;-95
2020/12/31 12:49:33;;;;;;;14.77;10.17;;;;;;;8.49;81.50;99797.72;1636175;85;21226;-95
2020/12/31 12:53:04;;;;;;;14.70;10.80;;;;;;;8.55;81.23;99793.48;1632247;85;21203;-95
2020/12/31 12:56:18;;;;;;;14.80;11.97;;;;;;;8.51;81.16;99780.27;1641124;84;21180;-96
2020/12/31 12:59:30;;;;;;;15.67;10.97;;;;;;;8.39;81.60;99778.59;1658629;84;21180;-90
2020/12/31 13:02:02;;;;;;;15.40;11.77;;;;;;;7.25;81.76;99615.89;1642671;85;21217;-92
2020/12/31 13:07:35;;;;;;;16.97;12.53;;;;;;;8.37;81.85;99792.05;1793250;78;24219;-93
2020/12/31 13:10:20;;;;;;;17.83;11.87;;;;;;;8.22;82.12;99784.62;1659729;83;21065;-92
2020/12/31 13:13:28;;;;;;;16.47;10.97;;;;;;;8.18;82.37;99782.03;1627191;83;21365;-93
2020/12/31 13:15:58;;;;;;;16.30;11.73;;;;;;;8.20;82.28;99782.67;1679481;84;21134;-95
2020/12/31 13:19:03;;;;;;;13.37;11.53;;;;;;;8.19;82.39;99790.30;1617972;85;21121;-92
2020/12/31 13:21:55;;;;;;;18.17;12.13;;;;;;;8.18;82.41;99788.16;1614801;85;21257;-90
2020/12/31 13:24:30;;;;;;;18.17;11.33;;;;;;;8.10;82.72;99786.10;1663570;85;21372;-95
2020/12/31 13:27:33;;;;;;;18.30;12.00;;;;;;;8.19;82.41;99787.64;1798065;77;24290;-93
2020/12/31 13:30:41;;;;;;;17.40;10.37;;;;;;;8.11;82.46;99780.61;1773948;78;21173;-87
2020/12/31 13:33:08;;;;;;;15.87;11.37;;;;;;;8.08;82.63;99792.95;1790645;77;21288;-92
2020/12/31 13:35:36;;;;;;;16.30;12.63;;;;;;;8.14;82.48;99784.23;1786068;77;21191;-90
2020/12/31 13:38:08;;;;;;;15.67;12.57;;;;;;;8.17;82.36;99787.86;1738328;80;21140;-92
2020/12/31 13:40:37;;;;;;;19.47;12.20;;;;;;;8.08;82.64;99782.81;1737089;81;21189;-93
2020/12/31 13:43:39;;;;;;;17.70;13.00;;;;;;;8.09;82.86;99777.84;1778013;79;24393;-93
2020/12/31 13:46:08;;;;;;;16.27;11.93;;;;;;;8.15;82.61;99783.21;1749082;80;21176;-94
2020/12/31 13:49:19;;;;;;;16.63;11.60;;;;;;;8.17;82.45;99777.23;1780898;78;21178;-91
2020/12/31 13:51:51;;;;;;;14.13;10.30;;;;;;;8.13;82.58;99787.88;1735542;80;21208;-92
2020/12/31 13:54:30;;;;;;;15.57;12.53;;;;;;;8.13;82.40;99773.28;1722638;82;21172;-95
2020/12/31 13:56:59;;;;;;;17.03;12.23;;;;;;;8.29;82.16;99777.57;1727643;82;21172;-94